createdAt,value
2018-10-19T00:00:53.504Z,42.49
2018-10-19T00:01:54.028Z,42.54
2018-10-19T00:02:54.475Z,42.58
2018-10-19T00:03:54.915Z,42.61
2018-10-19T00:04:55.422Z,42.66
2018-10-19T00:05:55.857Z,42.60
2018-10-19T00:06:56.332Z,42.56
2018-10-19T00:07:56.797Z,42.53
2018-10-19T00:08:57.332Z,42.49
2018-10-19T00:09:57.735Z,42.45
2018-10-19T00:10:58.209Z,42.40
2018-10-19T00:11:58.674Z,42.37
2018-10-19T00:12:59.143Z,42.31
2018-10-19T00:13:59.612Z,42.26
2018-10-19T00:15:00.144Z,42.22
2018-10-19T00:16:00.551Z,42.19
2018-10-19T00:17:01.091Z,42.13
2018-10-19T00:18:01.492Z,42.06
2018-10-19T00:19:02.162Z,42.00
2018-10-19T00:20:02.431Z,41.92
2018-10-19T00:21:02.975Z,41.86
2018-10-19T00:22:03.371Z,41.83
2018-10-19T00:23:03.862Z,41.80
2018-10-19T00:24:04.313Z,41.76
2018-10-19T00:25:04.781Z,41.72
2018-10-19T00:26:05.251Z,41.69
2018-10-19T00:27:05.974Z,41.64
2018-10-19T00:28:06.191Z,41.59
2018-10-19T00:29:06.734Z,41.56
2018-10-19T00:30:07.135Z,41.55
2018-10-19T00:31:07.604Z,41.53
2018-10-19T00:32:08.135Z,41.51
2018-10-19T00:33:08.583Z,41.50
2018-10-19T00:34:09.020Z,41.48
2018-10-19T00:35:09.566Z,41.44
2018-10-19T00:36:09.961Z,41.42
2018-10-19T00:37:10.435Z,41.40
2018-10-19T00:38:10.905Z,41.40
2018-10-19T00:39:11.403Z,41.39
2018-10-19T00:40:11.849Z,41.41
2018-10-19T00:41:12.397Z,41.40
2018-10-19T00:42:12.793Z,41.40
2018-10-19T00:43:13.265Z,41.41
2018-10-19T00:44:13.737Z,41.43
2018-10-19T00:45:14.285Z,41.46
2018-10-19T00:46:14.685Z,41.49
2018-10-19T00:47:15.192Z,41.50
2018-10-19T00:48:15.631Z,41.53
2018-10-19T00:49:16.099Z,41.56
2018-10-19T00:50:16.573Z,41.58
2018-10-19T00:51:17.121Z,41.59
2018-10-19T00:52:17.520Z,41.59
2018-10-19T00:53:17.995Z,41.57
2018-10-19T00:54:18.466Z,41.55
2018-10-19T00:55:18.941Z,41.59
2018-10-19T00:56:19.413Z,41.61
2018-10-19T00:57:19.987Z,41.61
2018-10-19T00:58:20.359Z,41.66
2018-10-19T00:59:20.832Z,41.68
2018-10-19T01:00:21.306Z,41.71
2018-10-19T01:01:21.776Z,41.73
2018-10-19T01:02:22.250Z,41.75
2018-10-19T01:03:22.723Z,41.79
2018-10-19T01:04:23.200Z,41.84
2018-10-19T01:05:23.668Z,41.88
2018-10-19T01:06:24.139Z,41.92
2018-10-19T01:07:27.648Z,41.96
2018-10-19T01:08:25.085Z,42.00
2018-10-19T01:09:25.555Z,42.03
2018-10-19T01:10:26.027Z,42.06
2018-10-19T01:11:26.498Z,42.08
2018-10-19T01:12:26.971Z,42.10
2018-10-19T01:13:27.440Z,42.13
2018-10-19T01:14:27.910Z,42.19
2018-10-19T01:15:28.381Z,42.24
2018-10-19T01:16:28.853Z,42.29
2018-10-19T01:17:29.323Z,42.34
2018-10-19T01:18:29.793Z,42.36
2018-10-19T01:19:30.263Z,42.39
2018-10-19T01:20:30.735Z,42.37
2018-10-19T01:21:31.202Z,42.35
2018-10-19T01:22:31.671Z,42.31
2018-10-19T01:23:32.145Z,42.27
2018-10-19T01:24:32.611Z,42.21
2018-10-19T01:25:33.080Z,42.14
2018-10-19T01:26:33.550Z,42.11
2018-10-19T01:27:34.021Z,42.06
2018-10-19T01:28:34.491Z,42.01
2018-10-19T01:29:34.958Z,41.97
2018-10-19T01:30:35.434Z,41.89
2018-10-19T01:31:35.911Z,41.84
2018-10-19T01:32:36.402Z,41.78
2018-10-19T01:33:36.839Z,41.71
2018-10-19T01:34:37.314Z,41.67
2018-10-19T01:35:37.777Z,41.62
2018-10-19T01:36:38.251Z,41.58
2018-10-19T01:37:38.720Z,41.51
2018-10-19T01:38:39.189Z,41.48
2018-10-19T01:39:39.657Z,41.44
2018-10-19T01:40:40.330Z,41.38
2018-10-19T01:41:40.598Z,41.36
2018-10-19T01:42:41.070Z,41.32
2018-10-19T01:43:41.540Z,41.28
2018-10-19T01:44:42.011Z,41.23
2018-10-19T01:45:42.483Z,41.18
2018-10-19T01:46:42.952Z,41.15
2018-10-19T01:47:43.428Z,41.12
2018-10-19T01:48:43.895Z,41.11
2018-10-19T01:49:44.367Z,41.11
2018-10-19T01:50:44.836Z,41.08
2018-10-19T01:51:45.309Z,41.06
2018-10-19T01:52:45.782Z,41.04
2018-10-19T01:53:46.252Z,41.02
2018-10-19T01:54:46.727Z,41.04
2018-10-19T01:55:47.197Z,41.08
2018-10-19T01:56:47.667Z,41.12
2018-10-19T01:57:48.140Z,41.15
2018-10-19T01:58:48.611Z,41.19
2018-10-19T01:59:49.084Z,41.21
2018-10-19T02:00:49.560Z,41.24
2018-10-19T02:01:50.029Z,41.29
2018-10-19T02:02:50.504Z,41.30
2018-10-19T02:03:50.975Z,41.32
2018-10-19T02:04:51.448Z,41.34
2018-10-19T02:05:51.925Z,41.35
2018-10-19T02:06:52.393Z,41.36
2018-10-19T02:07:52.866Z,41.36
2018-10-19T02:08:53.363Z,41.33
2018-10-19T02:09:53.815Z,41.30
2018-10-19T02:10:54.319Z,41.30
2018-10-19T02:11:54.762Z,41.29
2018-10-19T02:12:55.234Z,41.30
2018-10-19T02:13:55.705Z,41.32
2018-10-19T02:14:56.184Z,41.35
2018-10-19T02:15:56.652Z,41.37
2018-10-19T02:16:57.176Z,41.41
2018-10-19T02:17:57.597Z,41.43
2018-10-19T02:18:58.072Z,41.46
2018-10-19T02:19:58.542Z,41.49
2018-10-19T02:20:59.070Z,41.52
2018-10-19T02:21:59.488Z,41.54
2018-10-19T02:23:00.034Z,41.55
2018-10-19T02:24:00.432Z,41.59
2018-10-19T02:25:00.903Z,41.64
2018-10-19T02:26:01.375Z,41.68
2018-10-19T02:27:01.862Z,41.71
2018-10-19T02:28:02.320Z,41.73
2018-10-19T02:29:02.808Z,41.76
2018-10-19T02:30:03.258Z,41.82
2018-10-19T02:31:03.729Z,41.88
2018-10-19T02:32:04.204Z,41.94
2018-10-19T02:33:04.731Z,41.97
2018-10-19T02:34:05.140Z,41.99
2018-10-19T02:35:05.638Z,42.00
2018-10-19T02:36:06.082Z,41.99
2018-10-19T02:37:06.549Z,41.95
2018-10-19T02:38:07.018Z,41.94
2018-10-19T02:39:07.518Z,41.88
2018-10-19T02:40:07.960Z,41.83
2018-10-19T02:41:08.488Z,41.77
2018-10-19T02:42:08.896Z,41.72
2018-10-19T02:43:09.569Z,41.68
2018-10-19T02:44:09.835Z,41.64
2018-10-19T02:45:10.353Z,41.62
2018-10-19T02:46:10.775Z,41.56
2018-10-19T02:47:11.285Z,41.48
2018-10-19T02:48:11.717Z,41.42
2018-10-19T02:49:12.184Z,41.38
2018-10-19T02:50:12.654Z,41.33
2018-10-19T02:51:13.168Z,41.28
2018-10-19T02:52:13.590Z,41.23
2018-10-19T02:53:14.122Z,41.19
2018-10-19T02:54:14.534Z,41.15
2018-10-19T02:55:15.002Z,41.08
2018-10-19T02:56:15.471Z,41.06
2018-10-19T02:57:16.038Z,41.03
2018-10-19T02:58:16.413Z,40.99
2018-10-19T02:59:16.958Z,40.93
2018-10-19T03:00:17.352Z,40.89
2018-10-19T03:01:17.823Z,40.85
2018-10-19T03:02:18.293Z,40.81
2018-10-19T03:03:18.931Z,40.81
2018-10-19T03:04:19.238Z,40.79
2018-10-19T03:05:19.707Z,40.78
2018-10-19T03:06:20.179Z,40.75
2018-10-19T03:07:20.650Z,40.74
2018-10-19T03:08:21.121Z,40.77
2018-10-19T03:09:21.597Z,40.80
2018-10-19T03:10:22.065Z,40.83
2018-10-19T03:11:22.540Z,40.84
2018-10-19T03:12:23.010Z,40.87
2018-10-19T03:13:23.483Z,40.90
2018-10-19T03:14:23.951Z,40.89
2018-10-19T03:15:24.427Z,40.94
2018-10-19T03:16:24.897Z,40.97
2018-10-19T03:17:25.369Z,40.98
2018-10-19T03:18:25.841Z,41.02
2018-10-19T03:19:26.316Z,41.02
2018-10-19T03:20:26.786Z,41.03
2018-10-19T03:21:27.259Z,41.02
2018-10-19T03:22:27.737Z,41.04
2018-10-19T03:23:28.205Z,41.03
2018-10-19T03:24:28.680Z,41.06
2018-10-19T03:25:29.198Z,41.05
2018-10-19T03:26:29.622Z,41.01
2018-10-19T03:27:30.098Z,40.97
2018-10-19T03:28:30.572Z,40.95
2018-10-19T03:29:31.045Z,40.96
2018-10-19T03:30:31.516Z,40.98
2018-10-19T03:31:31.995Z,40.98
2018-10-19T03:32:32.461Z,41.04
2018-10-19T03:33:32.936Z,41.05
2018-10-19T03:34:33.407Z,41.12
2018-10-19T03:35:33.889Z,41.15
2018-10-19T03:36:34.354Z,41.18
2018-10-19T03:37:34.828Z,41.23
2018-10-19T03:38:35.298Z,41.27
2018-10-19T03:39:35.771Z,41.31
2018-10-19T03:40:36.261Z,41.33
2018-10-19T03:41:36.714Z,41.36
2018-10-19T03:42:37.187Z,41.41
2018-10-19T03:43:37.658Z,41.47
2018-10-19T03:44:38.129Z,41.51
2018-10-19T03:45:38.635Z,41.56
2018-10-19T03:46:39.069Z,41.64
2018-10-19T03:47:39.540Z,41.69
2018-10-19T03:48:40.015Z,41.75
2018-10-19T03:49:40.482Z,41.80
2018-10-19T03:50:40.953Z,41.82
2018-10-19T03:51:41.428Z,41.85
2018-10-19T03:52:41.890Z,41.83
2018-10-19T03:53:42.360Z,41.80
2018-10-19T03:54:42.832Z,41.77
2018-10-19T03:55:43.300Z,41.72
2018-10-19T03:56:43.774Z,41.68
2018-10-19T03:57:44.243Z,41.62
2018-10-19T03:58:44.708Z,41.56
2018-10-19T03:59:45.180Z,41.51
2018-10-19T04:00:45.647Z,41.44
2018-10-19T04:01:46.118Z,41.38
2018-10-19T04:02:46.585Z,41.33
2018-10-19T04:03:47.098Z,41.29
2018-10-19T04:04:47.526Z,41.22
2018-10-19T04:05:47.995Z,41.18
2018-10-19T04:06:48.464Z,41.12
2018-10-19T04:07:48.935Z,41.07
2018-10-19T04:08:49.404Z,41.01
2018-10-19T04:09:49.875Z,40.95
2018-10-19T04:10:50.345Z,40.91
2018-10-19T04:11:50.814Z,40.85
2018-10-19T04:12:51.286Z,40.77
2018-10-19T04:13:51.755Z,40.72
2018-10-19T04:14:52.226Z,40.67
2018-10-19T04:15:52.696Z,40.63
2018-10-19T04:16:53.203Z,40.61
2018-10-19T04:17:53.635Z,40.56
2018-10-19T04:18:54.110Z,40.53
2018-10-19T04:19:54.578Z,40.49
2018-10-19T04:20:55.060Z,40.43
2018-10-19T04:21:55.523Z,40.42
2018-10-19T04:22:56.029Z,40.39
2018-10-19T04:23:56.472Z,40.37
2018-10-19T04:24:56.984Z,40.35
2018-10-19T04:25:57.404Z,40.38
2018-10-19T04:26:57.904Z,40.38
2018-10-19T04:27:58.354Z,40.38
2018-10-19T04:28:58.837Z,40.37
2018-10-19T04:29:59.296Z,40.41
2018-10-19T04:30:59.765Z,40.43
2018-10-19T04:32:00.237Z,40.43
2018-10-19T04:33:00.748Z,40.41
2018-10-19T04:34:01.185Z,40.36
2018-10-19T04:35:01.748Z,40.36
2018-10-19T04:36:02.130Z,40.37
2018-10-19T04:37:02.605Z,40.35
2018-10-19T04:38:03.073Z,40.35
2018-10-19T04:39:03.592Z,40.32
2018-10-19T04:40:04.020Z,40.31
2018-10-19T04:41:04.535Z,40.32
2018-10-19T04:42:05.084Z,40.33
2018-10-19T04:43:05.441Z,40.30
2018-10-19T04:44:05.915Z,40.29
2018-10-19T04:45:06.452Z,40.33
2018-10-19T04:46:06.858Z,40.33
2018-10-19T04:47:07.353Z,40.33
2018-10-19T04:48:07.805Z,40.37
2018-10-19T04:49:08.281Z,40.40
2018-10-19T04:50:08.750Z,40.44
2018-10-19T04:51:09.281Z,40.48
2018-10-19T04:52:09.699Z,40.55
2018-10-19T04:53:10.240Z,40.62
2018-10-19T04:54:10.644Z,40.67
2018-10-19T04:55:11.113Z,40.74
2018-10-19T04:56:11.585Z,40.79
2018-10-19T04:57:12.146Z,40.83
2018-10-19T04:58:12.530Z,40.89
2018-10-19T04:59:13.080Z,40.95
2018-10-19T05:00:13.473Z,40.99
2018-10-19T05:01:13.948Z,41.03
2018-10-19T05:02:14.416Z,41.08
2018-10-19T05:03:15.042Z,41.14
2018-10-19T05:04:15.355Z,41.20
2018-10-19T05:05:15.872Z,41.25
2018-10-19T05:06:16.344Z,41.28
2018-10-19T05:07:16.765Z,41.30
2018-10-19T05:08:17.331Z,41.31
2018-10-19T05:09:17.705Z,41.28
2018-10-19T05:10:18.181Z,41.24
2018-10-19T05:11:18.673Z,41.26
2018-10-19T05:12:19.188Z,41.24
2018-10-19T05:13:19.584Z,41.18
2018-10-19T05:14:20.058Z,41.10
2018-10-19T05:15:20.524Z,41.04
2018-10-19T05:16:20.992Z,40.98
2018-10-19T05:17:21.463Z,40.93
2018-10-19T05:18:21.932Z,40.86
2018-10-19T05:19:22.400Z,40.80
2018-10-19T05:20:22.871Z,40.74
2018-10-19T05:21:23.340Z,40.67
2018-10-19T05:22:23.813Z,40.61
2018-10-19T05:23:24.278Z,40.56
2018-10-19T05:24:24.750Z,40.50
2018-10-19T05:25:25.219Z,40.47
2018-10-19T05:26:25.691Z,40.42
2018-10-19T05:27:26.160Z,40.40
2018-10-19T05:28:26.628Z,40.34
2018-10-19T05:29:27.099Z,40.32
2018-10-19T05:30:27.619Z,40.29
2018-10-19T05:31:28.040Z,40.26
2018-10-19T05:32:28.509Z,40.22
2018-10-19T05:33:28.982Z,40.20
2018-10-19T05:34:29.452Z,40.19
2018-10-19T05:35:29.923Z,40.21
2018-10-19T05:36:30.392Z,40.16
2018-10-19T05:37:30.863Z,40.16
2018-10-19T05:38:31.334Z,40.12
2018-10-19T05:39:31.807Z,40.12
2018-10-19T05:40:32.277Z,40.07
2018-10-19T05:41:32.751Z,40.08
2018-10-19T05:42:33.222Z,40.06
2018-10-19T05:43:33.759Z,40.06
2018-10-19T05:44:34.164Z,40.05
2018-10-19T05:45:34.635Z,40.04
2018-10-19T05:46:35.107Z,40.02
2018-10-19T05:47:35.583Z,40.01
2018-10-19T05:48:36.054Z,40.02
2018-10-19T05:49:36.524Z,40.05
2018-10-19T05:50:37.005Z,40.05
2018-10-19T05:51:37.467Z,40.05
2018-10-19T05:52:37.942Z,40.05
2018-10-19T05:53:38.414Z,40.05
2018-10-19T05:54:38.887Z,40.03
2018-10-19T05:55:39.360Z,40.00
2018-10-19T05:56:39.833Z,39.99
2018-10-19T05:57:40.310Z,39.94
2018-10-19T05:58:40.779Z,39.90
2018-10-19T05:59:41.254Z,39.87
2018-10-19T06:00:41.725Z,39.81
2018-10-19T06:01:42.200Z,39.81
2018-10-19T06:02:42.795Z,39.82
2018-10-19T06:03:43.147Z,39.85
2018-10-19T06:04:43.618Z,39.86
2018-10-19T06:05:44.144Z,39.86
2018-10-19T06:06:44.569Z,39.87
2018-10-19T06:07:45.036Z,39.89
2018-10-19T06:08:45.510Z,39.91
2018-10-19T06:09:45.991Z,39.95
2018-10-19T06:10:46.456Z,39.98
2018-10-19T06:11:46.937Z,40.01
2018-10-19T06:12:47.403Z,40.04
2018-10-19T06:13:47.901Z,40.09
2018-10-19T06:14:48.344Z,40.12
2018-10-19T06:15:48.814Z,40.14
2018-10-19T06:16:49.289Z,40.17
2018-10-19T06:17:49.759Z,40.19
2018-10-19T06:18:50.231Z,40.23
2018-10-19T06:19:50.701Z,40.25
2018-10-19T06:20:51.224Z,40.27
2018-10-19T06:21:51.645Z,40.31
2018-10-19T06:22:52.142Z,40.35
2018-10-19T06:23:52.582Z,40.37
2018-10-19T06:24:53.053Z,40.35
2018-10-19T06:25:53.617Z,40.36
2018-10-19T06:26:53.992Z,40.35
2018-10-19T06:27:54.463Z,40.29
2018-10-19T06:28:54.947Z,40.29
2018-10-19T06:29:55.402Z,40.25
2018-10-19T06:30:55.870Z,40.14
2018-10-19T06:31:56.364Z,40.06
2018-10-19T06:32:56.811Z,39.97
2018-10-19T06:33:57.281Z,39.89
2018-10-19T06:34:57.755Z,39.82
2018-10-19T06:35:58.220Z,39.76
2018-10-19T06:36:58.694Z,39.67
2018-10-19T06:37:59.185Z,39.62
2018-10-19T06:38:59.632Z,39.54
2018-10-19T06:40:00.104Z,39.48
2018-10-19T06:41:00.595Z,39.44
2018-10-19T06:42:01.041Z,39.39
2018-10-19T06:43:01.510Z,39.33
2018-10-19T06:44:02.018Z,39.25
2018-10-19T06:45:02.450Z,39.19
2018-10-19T06:46:02.920Z,39.18
2018-10-19T06:47:03.414Z,39.17
2018-10-19T06:48:03.860Z,39.14
2018-10-19T06:49:04.365Z,39.13
2018-10-19T06:50:04.824Z,39.09
2018-10-19T06:51:05.276Z,39.08
2018-10-19T06:52:05.745Z,39.04
2018-10-19T06:53:06.234Z,39.01
2018-10-19T06:54:06.693Z,38.98
2018-10-19T06:55:07.164Z,38.94
2018-10-19T06:56:07.694Z,38.92
2018-10-19T06:57:08.106Z,38.89
2018-10-19T06:58:08.578Z,38.89
2018-10-19T06:59:09.187Z,38.85
2018-10-19T07:00:09.524Z,38.81
2018-10-19T07:01:10.099Z,38.75
2018-10-19T07:02:10.538Z,38.74
2018-10-19T07:03:10.946Z,38.71
2018-10-19T07:04:11.416Z,38.63
2018-10-19T07:05:12.031Z,38.58
2018-10-19T07:06:12.535Z,38.53
2018-10-19T07:07:12.838Z,38.48
2018-10-19T07:08:13.342Z,38.43
2018-10-19T07:09:13.784Z,38.38
2018-10-19T07:10:14.259Z,38.33
2018-10-19T07:11:14.786Z,38.32
2018-10-19T07:12:15.265Z,38.32
2018-10-19T07:13:15.678Z,38.33
2018-10-19T07:14:16.212Z,38.34
2018-10-19T07:15:16.627Z,38.35
2018-10-19T07:16:17.099Z,38.33
2018-10-19T07:17:17.573Z,38.37
2018-10-19T07:18:18.046Z,38.41
2018-10-19T07:19:18.521Z,38.43
2018-10-19T07:20:18.995Z,38.45
2018-10-19T07:21:19.466Z,38.49
2018-10-19T07:22:19.941Z,38.51
2018-10-19T07:23:20.413Z,38.52
2018-10-19T07:24:20.886Z,38.54
2018-10-19T07:25:21.361Z,38.54
2018-10-19T07:26:21.830Z,38.54
2018-10-19T07:27:22.303Z,38.56
2018-10-19T07:28:22.775Z,38.55
2018-10-19T07:29:23.292Z,38.54
2018-10-19T07:30:23.720Z,38.52
2018-10-19T07:31:24.189Z,38.49
2018-10-19T07:32:24.660Z,38.45
2018-10-19T07:33:25.130Z,38.43
2018-10-19T07:34:25.602Z,38.44
2018-10-19T07:35:26.074Z,38.47
2018-10-19T07:36:26.557Z,38.50
2018-10-19T07:37:27.016Z,38.49
2018-10-19T07:38:27.487Z,38.49
2018-10-19T07:39:27.959Z,38.50
2018-10-19T07:40:28.427Z,38.46
2018-10-19T07:41:28.898Z,38.45
2018-10-19T07:42:29.372Z,38.39
2018-10-19T07:43:29.840Z,38.36
2018-10-19T07:44:30.308Z,38.31
2018-10-19T07:45:30.780Z,38.23
2018-10-19T07:46:31.249Z,38.17
2018-10-19T07:47:31.741Z,38.10
2018-10-19T07:48:32.238Z,38.03
2018-10-19T07:49:32.659Z,37.94
2018-10-19T07:50:33.131Z,37.86
2018-10-19T07:51:33.608Z,37.81
2018-10-19T07:52:34.070Z,37.70
2018-10-19T07:53:34.555Z,37.62
2018-10-19T07:54:35.042Z,37.52
2018-10-19T07:55:35.488Z,37.47
2018-10-19T07:56:36.014Z,37.42
2018-10-19T07:57:36.425Z,37.37
2018-10-19T07:58:36.906Z,37.33
2018-10-19T07:59:37.370Z,37.29
2018-10-19T08:00:37.882Z,37.25
2018-10-19T08:01:38.312Z,37.22
2018-10-19T08:02:38.786Z,37.20
2018-10-19T08:03:39.259Z,37.19
2018-10-19T08:04:39.730Z,37.13
2018-10-19T08:05:40.204Z,37.11
2018-10-19T08:06:40.728Z,37.09
2018-10-19T08:07:41.152Z,37.05
2018-10-19T08:08:41.624Z,36.99
2018-10-19T08:09:42.097Z,36.91
2018-10-19T08:10:42.570Z,36.84
2018-10-19T08:11:43.045Z,36.75
2018-10-19T08:12:43.519Z,36.68
2018-10-19T08:13:43.994Z,36.63
2018-10-19T08:14:44.467Z,36.56
2018-10-19T08:15:44.941Z,36.54
2018-10-19T08:16:45.416Z,36.53
2018-10-19T08:17:45.890Z,36.51
2018-10-19T08:18:46.367Z,36.48
2018-10-19T08:19:46.839Z,36.47
2018-10-19T08:20:47.314Z,36.43
2018-10-19T08:21:47.841Z,36.44
2018-10-19T08:22:48.265Z,36.44
2018-10-19T08:23:48.740Z,36.46
2018-10-19T08:24:49.212Z,36.47
2018-10-19T08:25:49.685Z,36.45
2018-10-19T08:26:50.160Z,36.46
2018-10-19T08:27:50.634Z,36.46
2018-10-19T08:28:51.109Z,36.46
2018-10-19T08:29:51.582Z,36.45
2018-10-19T08:30:52.056Z,36.47
2018-10-19T08:31:52.562Z,36.48
2018-10-19T08:32:53.003Z,36.49
2018-10-19T08:33:53.483Z,36.48
2018-10-19T08:34:53.997Z,36.48
2018-10-19T08:35:54.424Z,36.45
2018-10-19T08:36:54.946Z,36.41
2018-10-19T08:37:55.369Z,36.39
2018-10-19T08:38:55.848Z,36.38
2018-10-19T08:39:56.317Z,36.33
2018-10-19T08:40:56.848Z,36.30
2018-10-19T08:41:57.264Z,36.27
2018-10-19T08:42:57.763Z,36.23
2018-10-19T08:43:58.211Z,36.22
2018-10-19T08:44:58.730Z,36.18
2018-10-19T08:45:59.148Z,36.13
2018-10-19T08:46:59.655Z,36.10
2018-10-19T08:48:00.099Z,36.06
2018-10-19T08:49:00.606Z,36.05
2018-10-19T08:50:01.036Z,36.00
2018-10-19T08:51:01.542Z,35.99
2018-10-19T08:52:01.977Z,35.97
2018-10-19T08:53:02.464Z,35.93
2018-10-19T08:54:02.923Z,35.88
2018-10-19T08:55:03.444Z,35.77
2018-10-19T08:56:03.862Z,35.75
2018-10-19T08:57:04.388Z,35.78
2018-10-19T08:58:04.824Z,35.80
2018-10-19T08:59:05.336Z,35.78
2018-10-19T09:00:05.777Z,35.79
2018-10-19T09:01:06.219Z,35.77
2018-10-19T09:02:06.689Z,35.79
2018-10-19T09:03:07.201Z,35.77
2018-10-19T09:04:07.680Z,35.73
2018-10-19T09:05:08.134Z,35.70
2018-10-19T09:06:08.630Z,35.65
2018-10-19T09:07:09.041Z,35.63
2018-10-19T09:08:09.514Z,35.59
2018-10-19T09:09:10.055Z,35.53
2018-10-19T09:10:10.456Z,35.48
2018-10-19T09:11:10.931Z,35.43
2018-10-19T09:12:11.399Z,35.37
2018-10-19T09:13:11.867Z,35.30
2018-10-19T09:14:12.347Z,35.24
2018-10-19T09:15:12.875Z,35.18
2018-10-19T09:16:13.285Z,35.14
2018-10-19T09:17:13.813Z,35.10
2018-10-19T09:18:14.230Z,35.06
2018-10-19T09:19:14.704Z,35.04
2018-10-19T09:20:15.378Z,34.99
2018-10-19T09:21:15.748Z,34.94
2018-10-19T09:22:16.328Z,34.89
2018-10-19T09:23:16.744Z,34.82
2018-10-19T09:24:17.076Z,34.72
2018-10-19T09:25:17.551Z,34.64
2018-10-19T09:26:18.019Z,34.54
2018-10-19T09:27:18.501Z,34.51
2018-10-19T09:28:18.970Z,34.50
2018-10-19T09:29:19.486Z,34.54
2018-10-19T09:30:19.920Z,34.54
2018-10-19T09:31:20.394Z,34.51
2018-10-19T09:32:20.871Z,34.49
2018-10-19T09:33:21.344Z,34.48
2018-10-19T09:34:21.821Z,34.44
2018-10-19T09:35:22.335Z,34.43
2018-10-19T09:36:22.896Z,34.43
2018-10-19T09:37:23.248Z,34.43
2018-10-19T09:38:23.724Z,34.41
2018-10-19T09:39:24.198Z,34.41
2018-10-19T09:40:24.673Z,34.40
2018-10-19T09:41:25.265Z,34.42
2018-10-19T09:42:25.623Z,34.43
2018-10-19T09:43:26.100Z,34.45
2018-10-19T09:44:26.573Z,34.44
2018-10-19T09:45:27.050Z,34.44
2018-10-19T09:46:27.524Z,34.45
2018-10-19T09:47:28.004Z,34.45
2018-10-19T09:48:28.472Z,34.46
2018-10-19T09:49:28.950Z,34.47
2018-10-19T09:50:29.422Z,34.48
2018-10-19T09:51:29.898Z,34.49
2018-10-19T09:52:30.376Z,34.46
2018-10-19T09:53:30.847Z,34.46
2018-10-19T09:54:31.319Z,34.43
2018-10-19T09:55:31.794Z,34.42
2018-10-19T09:56:32.272Z,34.43
2018-10-19T09:57:32.743Z,34.43
2018-10-19T09:58:33.217Z,34.44
2018-10-19T09:59:33.696Z,34.43
2018-10-19T10:00:34.165Z,34.43
2018-10-19T10:01:34.637Z,34.43
2018-10-19T10:02:35.113Z,34.42
2018-10-19T10:03:35.585Z,34.42
2018-10-19T10:04:36.064Z,34.41
2018-10-19T10:05:36.532Z,34.41
2018-10-19T10:06:37.220Z,34.40
2018-10-19T10:07:37.480Z,34.38
2018-10-19T10:08:37.955Z,34.35
2018-10-19T10:09:38.436Z,34.34
2018-10-19T10:10:38.900Z,34.32
2018-10-19T10:11:39.372Z,34.28
2018-10-19T10:12:39.847Z,34.25
2018-10-19T10:13:40.319Z,34.21
2018-10-19T10:14:40.807Z,34.19
2018-10-19T10:15:41.336Z,34.15
2018-10-19T10:16:41.743Z,34.12
2018-10-19T10:17:42.209Z,34.09
2018-10-19T10:18:42.684Z,34.07
2018-10-19T10:19:43.158Z,34.06
2018-10-19T10:20:43.630Z,34.02
2018-10-19T10:21:44.106Z,34.00
2018-10-19T10:22:44.575Z,33.99
2018-10-19T10:23:45.046Z,33.97
2018-10-19T10:24:45.587Z,33.96
2018-10-19T10:25:45.994Z,33.93
2018-10-19T10:26:46.465Z,33.91
2018-10-19T10:27:46.940Z,33.89
2018-10-19T10:28:47.409Z,33.86
2018-10-19T10:29:47.884Z,33.85
2018-10-19T10:30:48.355Z,33.83
2018-10-19T10:31:48.826Z,33.81
2018-10-19T10:32:49.299Z,33.79
2018-10-19T10:33:49.772Z,33.75
2018-10-19T10:34:50.243Z,33.76
2018-10-19T10:35:50.717Z,33.73
2018-10-19T10:36:51.188Z,33.72
2018-10-19T10:37:51.663Z,33.69
2018-10-19T10:38:52.160Z,33.68
2018-10-19T10:39:52.606Z,33.66
2018-10-19T10:40:53.076Z,33.64
2018-10-19T10:41:53.551Z,33.62
2018-10-19T10:42:54.023Z,33.58
2018-10-19T10:43:54.491Z,33.56
2018-10-19T10:44:54.967Z,33.54
2018-10-19T10:45:55.489Z,33.52
2018-10-19T10:46:55.930Z,33.49
2018-10-19T10:47:56.380Z,33.47
2018-10-19T10:48:56.925Z,33.43
2018-10-19T10:49:57.325Z,33.40
2018-10-19T10:50:57.795Z,33.38
2018-10-19T10:51:58.302Z,33.36
2018-10-19T10:52:58.742Z,33.34
2018-10-19T10:53:59.213Z,33.30
2018-10-19T10:54:59.719Z,33.29
2018-10-19T10:56:00.158Z,33.27
2018-10-19T10:57:00.628Z,33.25
2018-10-19T10:58:01.108Z,33.23
2018-10-19T10:59:01.572Z,33.22
2018-10-19T11:00:02.043Z,33.19
2018-10-19T11:01:02.565Z,33.18
2018-10-19T11:02:02.988Z,33.16
2018-10-19T11:03:03.510Z,33.13
2018-10-19T11:04:03.950Z,33.13
2018-10-19T11:05:04.404Z,33.12
2018-10-19T11:06:04.873Z,33.10
2018-10-19T11:07:05.367Z,33.08
2018-10-19T11:08:05.822Z,33.08
2018-10-19T11:09:06.292Z,33.06
2018-10-19T11:10:06.792Z,33.03
2018-10-19T11:11:07.237Z,33.02
2018-10-19T11:12:07.706Z,33.01
2018-10-19T11:13:08.223Z,32.99
2018-10-19T11:14:08.649Z,32.98
2018-10-19T11:15:09.125Z,32.98
2018-10-19T11:16:09.640Z,32.97
2018-10-19T11:17:10.068Z,32.99
2018-10-19T11:18:10.539Z,32.94
2018-10-19T11:19:11.041Z,32.92
2018-10-19T11:20:11.483Z,32.90
2018-10-19T11:21:12.001Z,32.88
2018-10-19T11:22:12.644Z,32.87
2018-10-19T11:23:12.897Z,32.86
2018-10-19T11:24:13.369Z,32.85
2018-10-19T11:25:13.937Z,32.84
2018-10-19T11:26:14.314Z,32.79
2018-10-19T11:27:14.789Z,32.83
2018-10-19T11:28:15.531Z,32.80
2018-10-19T11:29:15.731Z,32.79
2018-10-19T11:30:16.201Z,32.78
2018-10-19T11:31:16.754Z,32.77
2018-10-19T11:32:17.144Z,32.76
2018-10-19T11:33:17.618Z,32.74
2018-10-19T11:34:18.095Z,32.73
2018-10-19T11:35:18.563Z,32.73
2018-10-19T11:36:19.032Z,32.72
2018-10-19T11:37:19.518Z,32.71
2018-10-19T11:38:19.975Z,32.70
2018-10-19T11:39:20.449Z,32.69
2018-10-19T11:40:20.923Z,32.67
2018-10-19T11:41:21.394Z,32.66
2018-10-19T11:42:22.070Z,32.65
2018-10-19T11:43:22.339Z,32.65
2018-10-19T11:44:22.810Z,32.64
2018-10-19T11:45:23.281Z,32.64
2018-10-19T11:46:23.958Z,32.62
2018-10-19T11:47:24.227Z,32.62
2018-10-19T11:48:24.749Z,32.61
2018-10-19T11:49:25.171Z,32.61
2018-10-19T11:50:25.642Z,32.60
2018-10-19T11:51:26.117Z,32.59
2018-10-19T11:52:26.590Z,32.59
2018-10-19T11:53:27.061Z,32.57
2018-10-19T11:54:27.532Z,32.57
2018-10-19T11:55:28.005Z,32.57
2018-10-19T11:56:28.478Z,32.56
2018-10-19T11:57:28.951Z,32.56
2018-10-19T11:58:29.423Z,32.55
2018-10-19T11:59:29.895Z,32.54
2018-10-19T12:00:30.371Z,32.54
2018-10-19T12:01:30.839Z,32.55
2018-10-19T12:02:31.313Z,32.54
2018-10-19T12:03:31.831Z,32.54
2018-10-19T12:04:32.256Z,32.54
2018-10-19T12:05:32.730Z,32.53
2018-10-19T12:06:33.205Z,32.53
2018-10-19T12:07:33.674Z,32.54
2018-10-19T12:08:34.147Z,32.52
2018-10-19T12:09:34.621Z,32.52
2018-10-19T12:10:35.153Z,32.53
2018-10-19T12:11:35.564Z,32.52
2018-10-19T12:12:36.050Z,32.52
2018-10-19T12:13:36.562Z,32.52
2018-10-19T12:14:36.982Z,32.52
2018-10-19T12:15:37.455Z,32.52
2018-10-19T12:16:37.989Z,32.52
2018-10-19T12:17:38.401Z,32.52
2018-10-19T12:18:38.875Z,32.54
2018-10-19T12:19:39.349Z,32.53
2018-10-19T12:20:39.857Z,32.53
2018-10-19T12:21:40.292Z,32.53
2018-10-19T12:22:40.761Z,32.53
2018-10-19T12:23:41.236Z,32.54
2018-10-19T12:24:41.710Z,32.53
2018-10-19T12:25:42.185Z,32.52
2018-10-19T12:26:42.653Z,32.52
2018-10-19T12:27:43.131Z,32.53
2018-10-19T12:28:43.602Z,32.53
2018-10-19T12:29:44.074Z,32.53
2018-10-19T12:30:44.548Z,32.54
2018-10-19T12:31:45.018Z,32.55
2018-10-19T12:32:45.491Z,32.55
2018-10-19T12:33:45.967Z,32.56
2018-10-19T12:34:46.436Z,32.56
2018-10-19T12:35:46.910Z,32.56
2018-10-19T12:36:47.385Z,32.56
2018-10-19T12:37:47.854Z,32.54
2018-10-19T12:38:48.379Z,32.57
2018-10-19T12:39:48.803Z,32.59
2018-10-19T12:40:49.273Z,32.59
2018-10-19T12:41:49.748Z,32.60
2018-10-19T12:42:50.222Z,32.63
2018-10-19T12:43:50.691Z,32.64
2018-10-19T12:44:51.166Z,32.63
2018-10-19T12:45:51.640Z,32.64
2018-10-19T12:46:52.111Z,32.66
2018-10-19T12:47:52.585Z,32.66
2018-10-19T12:48:53.068Z,32.67
2018-10-19T12:49:53.535Z,32.67
2018-10-19T12:50:54.014Z,32.68
2018-10-19T12:51:54.476Z,32.68
2018-10-19T12:52:54.950Z,32.69
2018-10-19T12:53:55.461Z,32.73
2018-10-19T12:54:55.935Z,32.72
2018-10-19T12:55:56.370Z,32.73
2018-10-19T12:56:56.896Z,32.75
2018-10-19T12:57:57.316Z,32.76
2018-10-19T12:58:57.789Z,32.76